Duanesburg, NY (12056)

15:11 EST 5. Březen 2015 (GMT -0500)
Duanesburg Rt. 20 | Change Station
CLOSE
Current Station
Osobní povětrnostní stanice
Location: Delanson, NY
Nadmořská výška: 1122 ft
Poblíž povětrnostní stanice

Výška 1122 ft 42.77 °N, 74.17 °W | Updated 13 seconds ago

Částečně oblačno
Částečně oblačno
16.9 °F
Pocit jako 17 °F
S
0.0
Vítr proměnlivý Vítr od severní
Gusts 0.0 mil/h

Dnes
Vysoké -- | Nízké -- °F
--% Možnost srážek
Včera
Vysoké -- | Nízké -- °F
Precip. -- inčů
6:26 AM 5:50 PM
Úplněk, 100% visible
Tlak 30.17 inčů
Viditelnost 10.0 mílí
Zataženo Jasno
Ochlazování větrem 17 °F
Rosný bod -1 °F
Vlhkost 45%
Dešťové srážky inčů
Sněhová pokrývka Není k dispozici
UV záření 4 ze 12
Pyl .40 ze 12
Kvalita ovzduší Není k dispozici
Flu Activity Není k dispozici
METAR KSCH 051851Z 29011G15KT 10SM CLR M07/M16 A3017

More Conditions Fewer Conditions

Tlak 30.17 inčů
Viditelnost 10.0 mílí
Zataženo Jasno
Ochlazování větrem 17 °F
Rosný bod -1 °F
Vlhkost 45%
Dešťové srážky inčů
Sněhová pokrývka Není k dispozici
UV záření 4 ze 12
Pyl .40 ze 12
Kvalita ovzduší Není k dispozici
Flu Activity Není k dispozici
METAR KSCH 051851Z 29011G15KT 10SM CLR M07/M16 A3017

More Conditions Fewer Conditions

10-Day Weather Forecast

Almanac

Astronomie

Mar. 05, 2015 Východ Západ
Skutečný čas
Občanský soumrak
Námořní soumrak
Astronomický soumrak
Měsíc
Délka denního světla
Délka dne
Tomorrow will be .
, % of the Moon is Illuminated

Dnešní extrémy

State Highs State Lows

Community

WunderPhotos

Upload Photos

1,802,938 snímků staženo!

WunderBlogs® & News

Nearby

Kvalita ovzduší

  Kvalita ovzduší Index kvality ovzduší Polutant
Not available.

Výška sněhu

Station Hloubka Nadmořská výška

Seizmická činnost

Město Distance Mag. Čas & datum
Minimální zobrazený rozsah je 2.5.

Pobřežní teplota vody

Lokalita Teplota

Poblíž povětrnostní stanice